Time;durP1;ratioP1;P1;durP2;ratioP2;P2;SDS_P1;SDS_P2;PMS_P1;PMS_P2;Temp;Humidity;BMP_temperature;BMP_pressure;BME280_temperature;BME280_humidity;BME280_pressure;Samples;Min_cycle;Max_cycle;Signal;HPM_P1;HPM_P2
2019/09/04 00:01:39;;;;;;;1.49;1.39;;;;;;;22.70;51.20;101083.12;;;;-46
2019/09/04 00:04:39;;;;;;;1.57;1.40;;;;;;;22.70;51.16;101087.77;;;;-52
2019/09/04 00:07:39;;;;;;;1.51;1.34;;;;;;;22.69;51.20;101087.33;;;;-46
2019/09/04 00:10:39;;;;;;;1.59;1.38;;;;;;;22.70;51.19;101084.13;;;;-45
2019/09/04 00:13:39;;;;;;;1.58;1.47;;;;;;;22.70;51.21;101086.08;;;;-45
2019/09/04 00:16:39;;;;;;;2.23;1.51;;;;;;;22.68;51.18;101082.23;;;;-45
2019/09/04 00:19:39;;;;;;;1.56;1.46;;;;;;;22.69;51.20;101076.34;;;;-45
2019/09/04 00:22:39;;;;;;;2.51;1.39;;;;;;;22.69;51.20;101071.73;;;;-55
2019/09/04 00:25:39;;;;;;;1.67;1.40;;;;;;;22.68;51.25;101072.02;;;;-56
2019/09/04 00:28:39;;;;;;;1.52;1.42;;;;;;;22.68;51.28;101071.75;;;;-45
2019/09/04 00:31:39;;;;;;;2.89;1.41;;;;;;;22.68;51.29;101063.50;;;;-56
2019/09/04 00:34:39;;;;;;;1.50;1.40;;;;;;;22.67;51.33;101061.44;;;;-55
2019/09/04 00:37:39;;;;;;;1.80;1.51;;;;;;;22.67;51.27;101059.69;;;;-54
2019/09/04 00:40:39;;;;;;;1.60;1.50;;;;;;;22.67;51.29;101057.23;;;;-56
2019/09/04 00:43:39;;;;;;;1.73;1.47;;;;;;;22.67;51.28;101059.92;;;;-56
2019/09/04 00:46:39;;;;;;;1.97;1.55;;;;;;;22.66;51.27;101057.19;;;;-45
2019/09/04 00:49:39;;;;;;;1.68;1.40;;;;;;;22.67;51.30;101052.34;;;;-45
2019/09/04 00:52:39;;;;;;;1.41;1.31;;;;;;;22.66;51.22;101047.09;;;;-45
2019/09/04 00:55:39;;;;;;;1.39;1.29;;;;;;;22.66;51.25;101047.42;;;;-46
2019/09/04 00:58:39;;;;;;;1.90;1.42;;;;;;;22.67;51.25;101047.13;;;;-46
2019/09/04 01:01:39;;;;;;;1.52;1.40;;;;;;;22.64;51.28;101041.79;;;;-46
2019/09/04 01:04:39;;;;;;;1.85;1.50;;;;;;;22.65;51.24;101041.83;;;;-56
2019/09/04 01:07:39;;;;;;;2.56;1.51;;;;;;;22.64;51.36;101037.68;;;;-56
2019/09/04 01:10:39;;;;;;;1.51;1.30;;;;;;;22.64;51.32;101036.06;;;;-52
2019/09/04 01:13:39;;;;;;;1.51;1.41;;;;;;;22.64;51.34;101031.52;;;;-45
2019/09/04 01:16:39;;;;;;;1.49;1.28;;;;;;;22.64;51.33;101027.41;;;;-46
2019/09/04 01:19:39;;;;;;;1.79;1.30;;;;;;;22.64;51.33;101024.11;;;;-46
2019/09/04 01:22:39;;;;;;;1.40;1.30;;;;;;;22.63;51.30;101019.29;;;;-55
2019/09/04 01:25:39;;;;;;;2.52;1.39;;;;;;;22.63;51.35;101014.41;;;;-52
2019/09/04 01:28:39;;;;;;;1.61;1.50;;;;;;;22.63;51.38;101013.80;;;;-54
2019/09/04 01:31:39;;;;;;;1.51;1.39;;;;;;;22.64;51.34;101013.66;;;;-45
2019/09/04 01:34:39;;;;;;;1.70;1.55;;;;;;;22.62;51.31;101007.89;;;;-45
2019/09/04 01:37:39;;;;;;;1.58;1.39;;;;;;;22.62;51.33;101007.89;;;;-53
2019/09/04 01:40:39;;;;;;;1.50;1.40;;;;;;;22.61;51.39;101004.90;;;;-45
2019/09/04 01:43:39;;;;;;;1.52;1.42;;;;;;;22.62;51.36;101002.08;;;;-46
2019/09/04 01:46:39;;;;;;;1.57;1.47;;;;;;;22.61;51.38;100995.47;;;;-54
2019/09/04 01:49:39;;;;;;;1.51;1.39;;;;;;;22.62;51.34;100996.25;;;;-45
2019/09/04 01:52:39;;;;;;;2.65;1.54;;;;;;;22.61;51.31;100993.00;;;;-57
2019/09/04 01:55:39;;;;;;;1.57;1.39;;;;;;;22.62;51.38;100993.31;;;;-54
2019/09/04 01:58:39;;;;;;;1.62;1.52;;;;;;;22.60;51.35;100989.47;;;;-53
2019/09/04 02:01:39;;;;;;;1.40;1.30;;;;;;;22.59;51.32;100983.44;;;;-47
2019/09/04 02:04:39;;;;;;;1.50;1.40;;;;;;;22.60;51.32;100982.73;;;;-45
2019/09/04 02:07:39;;;;;;;1.60;1.50;;;;;;;22.59;51.34;100980.23;;;;-45
2019/09/04 02:10:39;;;;;;;1.58;1.40;;;;;;;22.59;51.30;100977.98;;;;-55
2019/09/04 02:13:39;;;;;;;2.29;1.35;;;;;;;22.59;51.42;100975.52;;;;-45
2019/09/04 02:16:39;;;;;;;1.50;1.40;;;;;;;22.59;51.34;100972.49;;;;-46
2019/09/04 02:19:39;;;;;;;1.59;1.47;;;;;;;22.58;51.36;100964.03;;;;-52
2019/09/04 02:22:39;;;;;;;1.60;1.50;;;;;;;22.58;51.35;100960.39;;;;-46
2019/09/04 02:25:39;;;;;;;1.31;1.21;;;;;;;22.58;51.34;100949.99;;;;-45
2019/09/04 02:28:39;;;;;;;1.51;1.41;;;;;;;22.58;51.34;100947.94;;;;-46
2019/09/04 02:31:39;;;;;;;1.37;1.27;;;;;;;22.57;51.40;100944.30;;;;-56
2019/09/04 02:34:39;;;;;;;1.60;1.50;;;;;;;22.57;51.39;100940.36;;;;-45
2019/09/04 02:37:39;;;;;;;1.80;1.64;;;;;;;22.57;51.33;100940.59;;;;-56
2019/09/04 02:40:39;;;;;;;1.67;1.50;;;;;;;22.56;51.40;100944.59;;;;-46
2019/09/04 02:43:41;;;;;;;1.73;1.57;;;;;;;22.57;51.43;100939.31;;;;-52
2019/09/04 02:46:39;;;;;;;1.47;1.37;;;;;;;22.56;51.32;100942.06;;;;-46
2019/09/04 02:49:39;;;;;;;1.50;1.40;;;;;;;22.56;51.41;100934.66;;;;-52
2019/09/04 02:52:39;;;;;;;1.54;1.44;;;;;;;22.56;51.30;100929.67;;;;-52
2019/09/04 02:55:39;;;;;;;2.47;1.57;;;;;;;22.56;51.37;100927.15;;;;-55
2019/09/04 02:58:39;;;;;;;1.79;1.44;;;;;;;22.55;51.44;100925.20;;;;-55
2019/09/04 03:01:39;;;;;;;1.41;1.31;;;;;;;22.55;51.39;100927.66;;;;-52
2019/09/04 03:04:39;;;;;;;1.62;1.50;;;;;;;22.55;51.46;100929.57;;;;-53
2019/09/04 03:07:39;;;;;;;1.81;1.41;;;;;;;22.55;51.43;100926.81;;;;-52
2019/09/04 03:10:39;;;;;;;1.50;1.40;;;;;;;22.54;51.48;100926.94;;;;-52
2019/09/04 03:13:39;;;;;;;1.38;1.28;;;;;;;22.54;51.39;100926.60;;;;-55
2019/09/04 03:16:39;;;;;;;1.50;1.40;;;;;;;22.54;51.39;100924.92;;;;-56
2019/09/04 03:19:39;;;;;;;1.50;1.40;;;;;;;22.54;51.39;100923.23;;;;-46
2019/09/04 03:22:39;;;;;;;1.61;1.51;;;;;;;22.54;51.39;100927.34;;;;-46
2019/09/04 03:25:39;;;;;;;1.59;1.49;;;;;;;22.54;51.41;100920.44;;;;-46
2019/09/04 03:28:39;;;;;;;2.63;1.61;;;;;;;22.54;51.42;100923.88;;;;-47
2019/09/04 03:31:39;;;;;;;1.56;1.46;;;;;;;22.54;51.44;100924.31;;;;-47
2019/09/04 03:34:39;;;;;;;1.53;1.40;;;;;;;22.53;51.43;100918.98;;;;-54
2019/09/04 03:37:39;;;;;;;1.49;1.39;;;;;;;22.53;51.39;100921.07;;;;-57
2019/09/04 03:40:39;;;;;;;1.56;1.43;;;;;;;22.53;51.45;100918.65;;;;-57
2019/09/04 03:43:39;;;;;;;2.04;1.57;;;;;;;22.52;51.42;100915.69;;;;-48
2019/09/04 03:46:39;;;;;;;1.50;1.40;;;;;;;22.53;51.47;100916.26;;;;-47
2019/09/04 03:49:39;;;;;;;1.54;1.44;;;;;;;22.52;51.45;100912.78;;;;-48
2019/09/04 03:52:39;;;;;;;1.47;1.37;;;;;;;22.52;51.45;100916.19;;;;-46
2019/09/04 03:55:39;;;;;;;1.87;1.47;;;;;;;22.53;51.45;100914.07;;;;-57
2019/09/04 03:58:39;;;;;;;1.59;1.49;;;;;;;22.52;51.38;100908.47;;;;-45
2019/09/04 04:01:39;;;;;;;2.28;1.40;;;;;;;22.52;51.48;100907.47;;;;-45
2019/09/04 04:04:39;;;;;;;1.50;1.40;;;;;;;22.51;51.50;100905.55;;;;-52
2019/09/04 04:07:39;;;;;;;1.49;1.39;;;;;;;22.51;51.46;100902.88;;;;-46
2019/09/04 04:10:39;;;;;;;1.53;1.40;;;;;;;22.51;51.52;100902.38;;;;-57
2019/09/04 04:13:39;;;;;;;1.45;1.35;;;;;;;22.51;51.54;100902.25;;;;-57
2019/09/04 04:16:39;;;;;;;1.50;1.40;;;;;;;22.50;51.55;100897.59;;;;-56
2019/09/04 04:19:39;;;;;;;1.50;1.40;;;;;;;22.50;51.53;100899.45;;;;-57
2019/09/04 04:22:39;;;;;;;1.59;1.49;;;;;;;22.51;51.61;100897.50;;;;-54
2019/09/04 04:25:39;;;;;;;1.44;1.34;;;;;;;22.50;51.61;100893.34;;;;-52
2019/09/04 04:28:39;;;;;;;1.50;1.40;;;;;;;22.50;51.61;100891.36;;;;-45
2019/09/04 04:31:39;;;;;;;1.58;1.48;;;;;;;22.50;51.62;100895.61;;;;-45
2019/09/04 04:34:39;;;;;;;1.57;1.41;;;;;;;22.50;51.66;100900.59;;;;-45
2019/09/04 04:37:39;;;;;;;1.50;1.40;;;;;;;22.49;51.66;100905.30;;;;-45
2019/09/04 04:40:39;;;;;;;1.55;1.45;;;;;;;22.50;51.68;100908.06;;;;-46
2019/09/04 04:43:39;;;;;;;1.49;1.39;;;;;;;22.47;51.78;100909.96;;;;-45
2019/09/04 04:46:39;;;;;;;3.16;2.18;;;;;;;21.84;44.20;100916.27;;;;-46
2019/09/04 04:49:39;;;;;;;4.51;2.50;;;;;;;21.21;43.84;100915.75;;;;-45
2019/09/04 04:52:39;;;;;;;3.41;2.47;;;;;;;20.69;44.27;100919.02;;;;-46
2019/09/04 04:55:39;;;;;;;3.71;2.48;;;;;;;20.36;44.65;100921.24;;;;-46
2019/09/04 04:58:39;;;;;;;6.99;2.61;;;;;;;20.12;44.99;100919.93;;;;-45
2019/09/04 05:01:39;;;;;;;6.49;2.67;;;;;;;19.94;45.15;100921.92;;;;-45
2019/09/04 05:04:39;;;;;;;4.75;2.52;;;;;;;19.68;45.57;100921.54;;;;-47
2019/09/04 05:07:39;;;;;;;4.97;2.65;;;;;;;19.52;45.95;100914.99;;;;-47
2019/09/04 05:10:39;;;;;;;4.28;2.47;;;;;;;19.36;46.30;100911.88;;;;-47
2019/09/04 05:13:39;;;;;;;5.02;2.55;;;;;;;19.24;46.48;100912.41;;;;-47
2019/09/04 05:16:39;;;;;;;3.87;2.60;;;;;;;19.15;46.61;100912.55;;;;-46
2019/09/04 05:19:39;;;;;;;4.23;2.55;;;;;;;19.11;46.68;100907.89;;;;-46
2019/09/04 05:22:39;;;;;;;5.31;2.75;;;;;;;19.13;46.74;100907.83;;;;-46
2019/09/04 05:25:39;;;;;;;3.02;2.62;;;;;;;19.00;46.76;100903.16;;;;-46
2019/09/04 05:28:39;;;;;;;6.15;2.61;;;;;;;18.89;46.98;100905.41;;;;-46
2019/09/04 05:31:39;;;;;;;5.37;2.71;;;;;;;18.80;47.42;100902.91;;;;-46
2019/09/04 05:34:39;;;;;;;4.13;2.72;;;;;;;18.75;47.52;100901.52;;;;-46
2019/09/04 05:37:39;;;;;;;7.15;2.53;;;;;;;18.69;47.69;100905.36;;;;-46
2019/09/04 05:40:39;;;;;;;6.86;2.83;;;;;;;18.65;47.88;100897.84;;;;-46
2019/09/04 05:43:39;;;;;;;6.61;2.91;;;;;;;18.64;48.01;100899.13;;;;-46
2019/09/04 05:46:39;;;;;;;8.66;2.77;;;;;;;18.57;48.16;100898.00;;;;-55
2019/09/04 05:49:39;;;;;;;5.21;2.78;;;;;;;18.48;48.19;100897.11;;;;-55
2019/09/04 05:52:39;;;;;;;4.78;2.76;;;;;;;18.49;48.37;100901.40;;;;-54
2019/09/04 05:55:39;;;;;;;7.16;2.75;;;;;;;18.52;48.31;100901.40;;;;-55
2019/09/04 05:58:39;;;;;;;4.64;2.95;;;;;;;18.52;48.37;100901.02;;;;-55
2019/09/04 06:01:39;;;;;;;3.63;2.79;;;;;;;18.50;48.25;100900.69;;;;-55
2019/09/04 06:04:39;;;;;;;5.53;2.67;;;;;;;18.56;48.28;100893.83;;;;-47
2019/09/04 06:07:39;;;;;;;5.32;2.64;;;;;;;18.85;48.02;100893.03;;;;-46
2019/09/04 06:10:39;;;;;;;5.21;2.56;;;;;;;19.11;48.05;100893.42;;;;-46
2019/09/04 06:13:39;;;;;;;4.58;2.31;;;;;;;19.31;47.94;100889.72;;;;-54
2019/09/04 06:16:39;;;;;;;4.72;2.35;;;;;;;19.48;48.11;100892.00;;;;-56
2019/09/04 06:19:39;;;;;;;5.30;2.27;;;;;;;19.61;48.09;100888.61;;;;-46
2019/09/04 06:22:39;;;;;;;4.16;2.35;;;;;;;19.71;48.13;100889.62;;;;-57
2019/09/04 06:25:39;;;;;;;4.55;2.16;;;;;;;19.83;48.26;100897.53;;;;-47
2019/09/04 06:28:39;;;;;;;2.37;2.07;;;;;;;19.92;48.33;100902.70;;;;-54
2019/09/04 06:31:39;;;;;;;3.23;2.43;;;;;;;19.98;48.32;100896.20;;;;-47
2019/09/04 06:34:39;;;;;;;3.21;2.19;;;;;;;20.05;48.38;100894.87;;;;-47
2019/09/04 06:37:39;;;;;;;2.71;2.25;;;;;;;20.11;48.33;100896.41;;;;-47
2019/09/04 06:40:39;;;;;;;2.98;2.31;;;;;;;20.17;48.50;100897.34;;;;-47
2019/09/04 06:43:39;;;;;;;3.14;2.21;;;;;;;20.21;48.45;100894.38;;;;-56
2019/09/04 06:46:39;;;;;;;3.25;2.24;;;;;;;20.26;48.53;100890.05;;;;-47
2019/09/04 06:49:39;;;;;;;2.47;2.17;;;;;;;20.31;48.52;100891.47;;;;-54
2019/09/04 06:52:39;;;;;;;2.55;2.07;;;;;;;20.34;48.63;100889.09;;;;-46
2019/09/04 06:55:39;;;;;;;2.89;1.95;;;;;;;20.37;48.70;100884.55;;;;-47
2019/09/04 06:58:39;;;;;;;2.30;2.10;;;;;;;20.40;48.67;100880.94;;;;-46
2019/09/04 07:01:39;;;;;;;3.61;2.32;;;;;;;20.44;48.74;100882.09;;;;-47
2019/09/04 07:04:39;;;;;;;2.40;2.19;;;;;;;20.47;48.76;100883.41;;;;-54
2019/09/04 07:07:39;;;;;;;3.13;2.03;;;;;;;20.50;48.75;100880.57;;;;-54
2019/09/04 07:10:39;;;;;;;3.00;2.01;;;;;;;20.53;48.79;100877.31;;;;-46
2019/09/04 07:13:39;;;;;;;3.54;2.11;;;;;;;20.55;48.79;100874.05;;;;-54
2019/09/04 07:16:39;;;;;;;2.32;2.10;;;;;;;20.58;48.85;100872.58;;;;-53
2019/09/04 07:19:39;;;;;;;2.18;1.98;;;;;;;20.60;48.93;100872.88;;;;-46
2019/09/04 07:22:39;;;;;;;2.20;2.00;;;;;;;20.62;48.92;100867.94;;;;-46
2019/09/04 07:25:39;;;;;;;2.27;1.98;;;;;;;20.66;48.92;100859.69;;;;-53
2019/09/04 07:28:39;;;;;;;2.02;1.81;;;;;;;20.67;48.95;100852.97;;;;-56
2019/09/04 07:31:39;;;;;;;2.52;1.93;;;;;;;20.70;48.96;100853.44;;;;-47
2019/09/04 07:34:39;;;;;;;2.00;1.80;;;;;;;20.72;49.00;100852.52;;;;-46
2019/09/04 07:37:39;;;;;;;2.13;1.93;;;;;;;20.75;48.99;100851.55;;;;-54
2019/09/04 07:40:39;;;;;;;2.26;1.90;;;;;;;20.76;49.06;100854.11;;;;-46
2019/09/04 07:43:39;;;;;;;2.33;1.90;;;;;;;20.78;49.09;100851.84;;;;-46
2019/09/04 07:46:39;;;;;;;2.18;1.98;;;;;;;20.79;49.16;100850.12;;;;-46
2019/09/04 07:49:39;;;;;;;2.17;1.96;;;;;;;20.81;49.20;100849.67;;;;-46
2019/09/04 07:52:39;;;;;;;1.89;1.75;;;;;;;20.83;49.28;100846.74;;;;-46
2019/09/04 07:55:39;;;;;;;2.23;1.89;;;;;;;20.84;49.26;100842.53;;;;-46
2019/09/04 07:58:39;;;;;;;2.19;1.83;;;;;;;20.86;49.25;100839.49;;;;-46
2019/09/04 08:01:39;;;;;;;2.45;1.96;;;;;;;20.87;49.51;100839.11;;;;-47
2019/09/04 08:04:39;;;;;;;2.03;1.83;;;;;;;20.92;49.46;100841.67;;;;-46
2019/09/04 08:07:39;;;;;;;4.15;1.95;;;;;;;20.96;49.36;100837.82;;;;-47
2019/09/04 08:10:39;;;;;;;4.55;1.94;;;;;;;21.00;49.23;100837.16;;;;-46
2019/09/04 08:13:39;;;;;;;2.10;1.90;;;;;;;21.02;49.44;100835.64;;;;-46
2019/09/04 08:16:39;;;;;;;4.32;2.00;;;;;;;21.03;49.47;100836.89;;;;-46
2019/09/04 08:19:39;;;;;;;2.85;1.91;;;;;;;21.06;49.42;100836.70;;;;-48
2019/09/04 08:22:39;;;;;;;2.18;1.97;;;;;;;21.08;49.45;100837.25;;;;-46
2019/09/04 08:25:39;;;;;;;2.19;1.99;;;;;;;21.10;49.42;100835.15;;;;-46
2019/09/04 08:28:39;;;;;;;3.65;1.91;;;;;;;21.14;49.64;100838.52;;;;-47
2019/09/04 08:31:39;;;;;;;3.31;2.07;;;;;;;21.17;49.55;100834.95;;;;-54
2019/09/04 08:34:39;;;;;;;3.05;1.93;;;;;;;21.20;49.69;100835.25;;;;-56
2019/09/04 08:37:39;;;;;;;2.67;1.85;;;;;;;21.24;49.70;100833.30;;;;-44
2019/09/04 08:40:39;;;;;;;2.79;1.91;;;;;;;21.26;49.84;100823.08;;;;-55
2019/09/04 08:43:39;;;;;;;2.22;2.01;;;;;;;21.29;50.12;100817.73;;;;-54
2019/09/04 08:46:39;;;;;;;4.41;2.24;;;;;;;21.32;49.78;100813.77;;;;-55
2019/09/04 08:49:39;;;;;;;5.95;2.30;;;;;;;21.35;49.69;100807.84;;;;-51
2019/09/04 08:52:39;;;;;;;7.59;2.17;;;;;;;21.38;49.91;100806.86;;;;-45
2019/09/04 08:55:39;;;;;;;4.21;2.20;;;;;;;21.41;49.81;100798.08;;;;-46
2019/09/04 08:58:39;;;;;;;5.69;2.28;;;;;;;21.44;49.96;100795.98;;;;-52
2019/09/04 09:01:39;;;;;;;4.23;2.11;;;;;;;21.46;49.86;100786.59;;;;-54
2019/09/04 09:04:39;;;;;;;7.97;2.30;;;;;;;21.49;49.62;100780.00;;;;-54
2019/09/04 09:07:39;;;;;;;4.82;2.43;;;;;;;21.50;49.85;100779.64;;;;-59
2019/09/04 09:10:39;;;;;;;7.07;2.43;;;;;;;21.53;49.54;100773.17;;;;-54
2019/09/04 09:13:39;;;;;;;6.35;2.40;;;;;;;21.56;49.43;100773.16;;;;-51
2019/09/04 09:16:39;;;;;;;4.99;2.27;;;;;;;21.58;49.70;100770.19;;;;-50
2019/09/04 09:19:39;;;;;;;11.84;2.61;;;;;;;21.60;49.70;100767.27;;;;-49
2019/09/04 09:22:39;;;;;;;10.48;2.51;;;;;;;21.63;49.93;100761.89;;;;-57
2019/09/04 09:25:39;;;;;;;13.87;2.97;;;;;;;21.67;49.83;100758.98;;;;-49
2019/09/04 09:28:39;;;;;;;16.92;2.85;;;;;;;21.69;49.88;100756.05;;;;-54
2019/09/04 09:31:39;;;;;;;11.54;2.95;;;;;;;21.70;49.87;100748.69;;;;-48
2019/09/04 09:34:39;;;;;;;9.44;2.63;;;;;;;21.73;50.01;100746.72;;;;-48
2019/09/04 09:37:39;;;;;;;14.42;2.63;;;;;;;21.74;49.89;100740.16;;;;-57
2019/09/04 09:40:39;;;;;;;12.46;2.73;;;;;;;21.76;49.97;100741.86;;;;-46
2019/09/04 09:43:39;;;;;;;24.26;3.32;;;;;;;21.77;49.86;100733.73;;;;-46
2019/09/04 09:46:39;;;;;;;12.98;3.05;;;;;;;21.77;50.11;100731.14;;;;-55
2019/09/04 09:49:39;;;;;;;13.82;2.76;;;;;;;21.77;49.86;100722.47;;;;-56
2019/09/04 09:52:39;;;;;;;19.99;3.35;;;;;;;21.80;49.96;100714.78;;;;-48
2019/09/04 09:55:39;;;;;;;13.41;3.41;;;;;;;21.80;49.93;100714.52;;;;-50
2019/09/04 09:58:39;;;;;;;9.95;2.96;;;;;;;21.81;49.89;100711.02;;;;-50
2019/09/04 10:01:39;;;;;;;9.32;2.95;;;;;;;21.83;49.92;100709.02;;;;-44
2019/09/04 10:04:39;;;;;;;15.97;2.86;;;;;;;21.84;49.95;100702.84;;;;-52
2019/09/04 10:07:39;;;;;;;9.65;2.93;;;;;;;21.86;49.97;100701.13;;;;-53
2019/09/04 10:10:39;;;;;;;8.95;2.66;;;;;;;21.89;49.94;100697.71;;;;-45
2019/09/04 10:13:39;;;;;;;12.61;2.87;;;;;;;21.90;49.96;100687.83;;;;-44
2019/09/04 10:16:39;;;;;;;12.51;3.08;;;;;;;21.92;50.14;100684.61;;;;-45
2019/09/04 10:19:39;;;;;;;10.13;2.99;;;;;;;21.95;50.29;100684.45;;;;-47
2019/09/04 10:22:39;;;;;;;10.13;2.61;;;;;;;21.97;50.24;100680.33;;;;-47
2019/09/04 10:25:39;;;;;;;11.83;2.79;;;;;;;21.98;50.15;100674.08;;;;-47
2019/09/04 10:28:39;;;;;;;12.47;2.59;;;;;;;21.99;50.16;100669.67;;;;-47
2019/09/04 10:31:39;;;;;;;13.04;2.77;;;;;;;22.00;50.13;100665.41;;;;-47
2019/09/04 10:34:39;;;;;;;8.55;2.46;;;;;;;22.01;50.08;100660.39;;;;-52
2019/09/04 10:37:39;;;;;;;7.47;2.69;;;;;;;22.03;50.19;100655.43;;;;-45
2019/09/04 10:40:39;;;;;;;7.59;2.67;;;;;;;22.04;50.10;100646.11;;;;-60
2019/09/04 10:43:39;;;;;;;9.05;2.63;;;;;;;22.05;50.26;100643.22;;;;-47
2019/09/04 10:46:39;;;;;;;8.54;2.49;;;;;;;22.05;50.23;100639.69;;;;-53
2019/09/04 10:49:39;;;;;;;10.33;2.93;;;;;;;22.07;50.24;100627.82;;;;-47
2019/09/04 10:52:39;;;;;;;14.42;2.95;;;;;;;22.06;50.06;100622.30;;;;-45
2019/09/04 10:55:39;;;;;;;11.12;2.87;;;;;;;22.07;50.29;100625.80;;;;-50
2019/09/04 10:58:39;;;;;;;11.17;2.81;;;;;;;22.09;50.26;100624.70;;;;-45
2019/09/04 11:01:39;;;;;;;10.17;2.64;;;;;;;22.10;50.19;100614.41;;;;-48
2019/09/04 11:04:39;;;;;;;11.55;2.66;;;;;;;22.09;50.19;100613.77;;;;-57
2019/09/04 11:07:39;;;;;;;10.20;2.58;;;;;;;22.08;50.21;100606.66;;;;-50
2019/09/04 11:10:39;;;;;;;5.99;2.56;;;;;;;22.08;50.16;100601.86;;;;-54
2019/09/04 11:13:39;;;;;;;11.39;2.89;;;;;;;22.08;50.24;100597.58;;;;-57
2019/09/04 11:16:39;;;;;;;7.83;2.66;;;;;;;22.07;50.17;100591.83;;;;-50
2019/09/04 11:19:39;;;;;;;6.67;2.82;;;;;;;22.07;50.17;100586.34;;;;-48
2019/09/04 11:22:39;;;;;;;5.87;2.54;;;;;;;22.06;50.18;100577.83;;;;-55
2019/09/04 11:25:39;;;;;;;8.07;2.60;;;;;;;22.07;50.20;100575.92;;;;-56
2019/09/04 11:28:39;;;;;;;5.86;2.29;;;;;;;22.07;50.22;100570.53;;;;-56
2019/09/04 11:31:39;;;;;;;7.70;2.48;;;;;;;22.07;50.18;100566.66;;;;-56
2019/09/04 11:34:39;;;;;;;7.49;2.54;;;;;;;22.07;50.23;100555.73;;;;-50
2019/09/04 11:37:39;;;;;;;9.64;2.63;;;;;;;22.07;50.12;100552.30;;;;-50
2019/09/04 11:40:39;;;;;;;5.00;2.31;;;;;;;22.07;50.18;100548.61;;;;-57
2019/09/04 11:43:39;;;;;;;7.99;2.59;;;;;;;22.07;50.10;100547.32;;;;-49
2019/09/04 11:46:39;;;;;;;12.28;2.70;;;;;;;22.08;50.06;100545.20;;;;-49
2019/09/04 11:49:39;;;;;;;7.71;2.73;;;;;;;22.08;50.11;100540.30;;;;-48
2019/09/04 11:52:39;;;;;;;8.27;2.69;;;;;;;22.08;50.11;100536.42;;;;-58
2019/09/04 11:55:39;;;;;;;7.15;2.79;;;;;;;22.09;50.07;100526.70;;;;-57
2019/09/04 11:58:39;;;;;;;6.77;2.85;;;;;;;22.09;50.03;100532.86;;;;-57
2019/09/04 12:01:39;;;;;;;8.20;2.75;;;;;;;22.10;50.12;100528.52;;;;-57
2019/09/04 12:04:39;;;;;;;6.82;2.63;;;;;;;22.10;50.06;100518.59;;;;-57
2019/09/04 12:07:39;;;;;;;7.05;2.90;;;;;;;22.09;50.06;100513.28;;;;-47
2019/09/04 12:10:39;;;;;;;7.91;2.83;;;;;;;22.11;50.03;100512.25;;;;-56
2019/09/04 12:13:39;;;;;;;6.09;3.03;;;;;;;22.10;50.01;100502.22;;;;-56
2019/09/04 12:16:39;;;;;;;8.19;2.97;;;;;;;22.11;50.07;100500.06;;;;-48
2019/09/04 12:19:39;;;;;;;5.71;2.77;;;;;;;22.11;50.04;100495.36;;;;-48
2019/09/04 12:22:39;;;;;;;5.29;2.78;;;;;;;22.11;50.01;100491.99;;;;-48
2019/09/04 12:25:39;;;;;;;6.47;2.75;;;;;;;22.12;50.04;100488.23;;;;-47
2019/09/04 12:28:39;;;;;;;5.55;2.95;;;;;;;22.12;49.99;100488.33;;;;-57
2019/09/04 12:31:39;;;;;;;5.90;2.77;;;;;;;22.11;50.06;100482.41;;;;-48
2019/09/04 12:34:39;;;;;;;6.90;3.03;;;;;;;22.12;50.09;100471.81;;;;-48
2019/09/04 12:37:39;;;;;;;4.95;2.92;;;;;;;22.12;50.03;100470.06;;;;-47
2019/09/04 12:40:39;;;;;;;7.53;3.03;;;;;;;22.11;50.02;100463.56;;;;-55
2019/09/04 12:43:39;;;;;;;6.21;3.09;;;;;;;22.12;50.01;100464.00;;;;-57
2019/09/04 12:46:39;;;;;;;5.47;3.09;;;;;;;22.13;50.07;100455.96;;;;-57
2019/09/04 12:49:39;;;;;;;7.34;2.95;;;;;;;22.13;50.05;100445.37;;;;-48
2019/09/04 12:52:39;;;;;;;6.71;3.33;;;;;;;22.12;50.00;100444.66;;;;-47
2019/09/04 12:55:39;;;;;;;6.57;3.17;;;;;;;22.12;50.00;100442.91;;;;-57
2019/09/04 12:58:39;;;;;;;4.85;3.04;;;;;;;22.13;50.06;100438.47;;;;-48
2019/09/04 13:01:39;;;;;;;6.89;3.37;;;;;;;22.13;50.06;100435.68;;;;-48
2019/09/04 13:04:39;;;;;;;5.50;3.33;;;;;;;22.13;50.06;100429.83;;;;-48
2019/09/04 13:07:39;;;;;;;9.23;3.51;;;;;;;22.14;50.11;100424.20;;;;-48
2019/09/04 13:10:39;;;;;;;5.43;3.19;;;;;;;22.14;50.04;100423.27;;;;-47
2019/09/04 13:13:39;;;;;;;7.67;3.30;;;;;;;22.14;50.07;100425.55;;;;-57
2019/09/04 13:16:39;;;;;;;7.91;3.49;;;;;;;22.15;50.13;100423.13;;;;-57
2019/09/04 13:19:39;;;;;;;6.41;3.22;;;;;;;22.14;50.14;100416.13;;;;-54
2019/09/04 13:22:39;;;;;;;5.61;3.39;;;;;;;22.17;50.14;100410.95;;;;-51
2019/09/04 13:25:39;;;;;;;7.33;3.39;;;;;;;22.19;50.21;100403.64;;;;-52
2019/09/04 13:28:39;;;;;;;10.03;4.02;;;;;;;22.20;50.21;100394.36;;;;-54
2019/09/04 13:31:39;;;;;;;7.03;4.22;;;;;;;22.23;50.34;100400.17;;;;-57
2019/09/04 13:34:39;;;;;;;10.66;4.33;;;;;;;22.24;50.30;100391.90;;;;-61
2019/09/04 13:37:39;;;;;;;13.76;5.69;;;;;;;22.27;50.23;100394.42;;;;-58
2019/09/04 13:40:39;;;;;;;15.23;6.75;;;;;;;22.25;50.40;100381.73;;;;-61
2019/09/04 13:43:39;;;;;;;13.57;6.46;;;;;;;22.28;50.46;100382.44;;;;-56
2019/09/04 13:46:39;;;;;;;15.33;7.02;;;;;;;22.29;50.32;100382.70;;;;-54
2019/09/04 13:49:39;;;;;;;15.90;7.45;;;;;;;22.32;50.47;100382.63;;;;-55
2019/09/04 13:52:39;;;;;;;17.47;7.44;;;;;;;22.34;50.47;100380.00;;;;-57
2019/09/04 13:55:39;;;;;;;17.23;8.02;;;;;;;22.35;50.40;100379.63;;;;-61
2019/09/04 13:58:39;;;;;;;17.57;8.67;;;;;;;22.35;50.45;100372.23;;;;-58
2019/09/04 14:01:39;;;;;;;16.55;9.41;;;;;;;22.35;50.37;100377.38;;;;-44
2019/09/04 14:04:39;;;;;;;18.46;9.86;;;;;;;22.36;50.41;100366.70;;;;-47
2019/09/04 14:07:39;;;;;;;17.58;9.79;;;;;;;22.36;50.45;100361.42;;;;-49
2019/09/04 14:10:39;;;;;;;19.21;10.23;;;;;;;22.38;50.49;100354.82;;;;-53
2019/09/04 14:13:39;;;;;;;19.39;10.21;;;;;;;22.38;50.50;100356.50;;;;-53
2019/09/04 14:16:39;;;;;;;19.70;10.69;;;;;;;22.40;50.47;100350.67;;;;-55
2019/09/04 14:19:39;;;;;;;20.52;10.85;;;;;;;22.41;50.41;100345.05;;;;-58
2019/09/04 14:22:39;;;;;;;18.83;11.05;;;;;;;22.41;50.46;100338.99;;;;-54
2019/09/04 14:25:39;;;;;;;19.35;11.23;;;;;;;22.41;50.35;100343.97;;;;-53
2019/09/04 14:28:39;;;;;;;21.81;11.49;;;;;;;22.42;50.46;100338.69;;;;-55
2019/09/04 14:31:39;;;;;;;21.32;11.43;;;;;;;22.43;50.42;100330.23;;;;-47
2019/09/04 14:34:39;;;;;;;22.77;11.63;;;;;;;22.43;50.31;100334.01;;;;-52
2019/09/04 14:37:39;;;;;;;23.85;12.16;;;;;;;22.45;50.28;100327.27;;;;-55
2019/09/04 14:40:39;;;;;;;25.95;12.77;;;;;;;22.45;50.32;100320.37;;;;-54
2019/09/04 14:43:39;;;;;;;25.85;12.47;;;;;;;22.47;50.23;100321.84;;;;-52
2019/09/04 14:46:39;;;;;;;25.79;12.68;;;;;;;22.49;50.30;100324.63;;;;-58
2019/09/04 14:49:39;;;;;;;25.84;13.15;;;;;;;22.51;50.43;100325.06;;;;-62
2019/09/04 14:52:39;;;;;;;28.11;12.21;;;;;;;22.51;50.44;100322.40;;;;-47
2019/09/04 14:55:39;;;;;;;26.63;12.62;;;;;;;22.52;50.36;100320.58;;;;-51
2019/09/04 14:58:39;;;;;;;28.70;12.61;;;;;;;22.53;50.44;100314.81;;;;-52
2019/09/04 15:01:39;;;;;;;37.40;13.35;;;;;;;22.54;50.46;100313.06;;;;-57
2019/09/04 15:04:39;;;;;;;31.67;12.93;;;;;;;22.56;50.73;100304.10;;;;-54
2019/09/04 15:07:39;;;;;;;26.18;12.79;;;;;;;22.56;50.57;100303.20;;;;-52
2019/09/04 15:10:39;;;;;;;27.41;12.71;;;;;;;22.58;50.71;100299.18;;;;-50
2019/09/04 15:13:39;;;;;;;24.03;12.35;;;;;;;22.58;50.66;100293.45;;;;-50
2019/09/04 15:16:39;;;;;;;22.95;12.38;;;;;;;22.59;50.75;100288.70;;;;-59
2019/09/04 15:19:39;;;;;;;28.47;12.62;;;;;;;22.63;50.72;100295.29;;;;-58
2019/09/04 15:22:39;;;;;;;23.06;11.77;;;;;;;22.64;50.94;100288.08;;;;-54
2019/09/04 15:25:39;;;;;;;24.94;12.72;;;;;;;22.64;50.90;100284.13;;;;-51
2019/09/04 15:28:39;;;;;;;22.85;11.99;;;;;;;22.65;50.93;100281.70;;;;-50
2019/09/04 15:31:39;;;;;;;26.51;12.49;;;;;;;22.65;50.87;100277.44;;;;-51
2019/09/04 15:34:39;;;;;;;22.86;12.04;;;;;;;22.65;50.95;100280.80;;;;-53
2019/09/04 15:37:39;;;;;;;25.95;11.99;;;;;;;22.66;50.94;100277.53;;;;-48
2019/09/04 15:40:39;;;;;;;24.85;11.87;;;;;;;22.66;50.99;100275.27;;;;-52
2019/09/04 15:43:39;;;;;;;18.22;10.82;;;;;;;22.65;50.78;100274.41;;;;-57
2019/09/04 15:46:39;;;;;;;26.82;11.93;;;;;;;22.65;50.98;100269.76;;;;-57
2019/09/04 15:49:39;;;;;;;21.37;11.75;;;;;;;22.65;50.94;100264.03;;;;-56
2019/09/04 15:52:39;;;;;;;28.63;12.19;;;;;;;22.62;50.96;100265.56;;;;-57
2019/09/04 15:55:39;;;;;;;20.85;11.59;;;;;;;22.62;51.08;100262.63;;;;-57
2019/09/04 15:58:39;;;;;;;21.35;11.76;;;;;;;22.61;50.97;100260.08;;;;-49
2019/09/04 16:01:39;;;;;;;20.23;12.03;;;;;;;22.61;50.92;100257.96;;;;-49
2019/09/04 16:04:39;;;;;;;22.77;11.87;;;;;;;22.60;50.89;100258.00;;;;-48
2019/09/04 16:07:39;;;;;;;19.77;11.13;;;;;;;22.58;50.96;100254.95;;;;-47
2019/09/04 16:10:39;;;;;;;19.97;11.59;;;;;;;22.58;50.90;100249.97;;;;-48
2019/09/04 16:13:39;;;;;;;22.35;11.40;;;;;;;22.57;50.88;100253.23;;;;-48
2019/09/04 16:16:39;;;;;;;21.04;11.31;;;;;;;22.56;50.94;100251.76;;;;-48
2019/09/04 16:19:39;;;;;;;18.43;11.07;;;;;;;22.56;50.91;100252.70;;;;-48
2019/09/04 16:22:39;;;;;;;20.59;11.35;;;;;;;22.56;50.88;100245.02;;;;-48
2019/09/04 16:25:39;;;;;;;20.59;10.75;;;;;;;22.56;50.92;100246.30;;;;-49
2019/09/04 16:28:39;;;;;;;19.38;10.79;;;;;;;22.55;50.95;100245.50;;;;-48
2019/09/04 16:31:39;;;;;;;20.02;11.51;;;;;;;22.55;50.93;100243.31;;;;-48
2019/09/04 16:34:39;;;;;;;18.66;11.15;;;;;;;22.55;50.88;100246.00;;;;-48
2019/09/04 16:37:39;;;;;;;16.39;10.23;;;;;;;22.54;50.82;100243.72;;;;-48